sensor_id;sensor_type;location;lat;lon;timestamp;temperature;humidity
10986;DHT22;5546;48.714;8.738;2022-08-21T00:00:07;17.60;91.70
10986;DHT22;5546;48.714;8.738;2022-08-21T00:02:33;17.50;92.00
10986;DHT22;5546;48.714;8.738;2022-08-21T00:04:59;17.40;92.30
10986;DHT22;5546;48.714;8.738;2022-08-21T00:07:25;17.50;91.90
10986;DHT22;5546;48.714;8.738;2022-08-21T00:09:52;17.60;92.20
10986;DHT22;5546;48.714;8.738;2022-08-21T00:12:18;17.40;92.30
10986;DHT22;5546;48.714;8.738;2022-08-21T00:14:43;17.50;92.00
10986;DHT22;5546;48.714;8.738;2022-08-21T00:17:09;17.50;92.30
10986;DHT22;5546;48.714;8.738;2022-08-21T00:19:34;17.50;91.90
10986;DHT22;5546;48.714;8.738;2022-08-21T00:22:00;17.50;92.10
10986;DHT22;5546;48.714;8.738;2022-08-21T00:24:26;17.70;91.50
10986;DHT22;5546;48.714;8.738;2022-08-21T00:26:52;17.70;91.80
10986;DHT22;5546;48.714;8.738;2022-08-21T00:29:18;17.70;91.80
10986;DHT22;5546;48.714;8.738;2022-08-21T00:31:45;17.40;91.90
10986;DHT22;5546;48.714;8.738;2022-08-21T00:34:12;17.40;92.20
10986;DHT22;5546;48.714;8.738;2022-08-21T00:36:38;17.10;93.40
10986;DHT22;5546;48.714;8.738;2022-08-21T00:39:06;17.00;93.70
10986;DHT22;5546;48.714;8.738;2022-08-21T00:41:32;16.80;94.00
10986;DHT22;5546;48.714;8.738;2022-08-21T00:43:58;16.70;94.40
10986;DHT22;5546;48.714;8.738;2022-08-21T00:46:24;16.50;95.00
10986;DHT22;5546;48.714;8.738;2022-08-21T00:48:49;16.60;94.40
10986;DHT22;5546;48.714;8.738;2022-08-21T00:54:06;17.00;93.30
10986;DHT22;5546;48.714;8.738;2022-08-21T00:56:32;17.20;92.50
10986;DHT22;5546;48.714;8.738;2022-08-21T00:58:58;17.20;92.70
10986;DHT22;5546;48.714;8.738;2022-08-21T01:01:25;17.00;93.30
10986;DHT22;5546;48.714;8.738;2022-08-21T01:03:51;17.00;92.80
10986;DHT22;5546;48.714;8.738;2022-08-21T01:06:17;17.10;92.70
10986;DHT22;5546;48.714;8.738;2022-08-21T01:08:43;17.00;92.90
10986;DHT22;5546;48.714;8.738;2022-08-21T01:11:09;16.80;92.70
10986;DHT22;5546;48.714;8.738;2022-08-21T01:13:36;16.80;93.10
10986;DHT22;5546;48.714;8.738;2022-08-21T01:16:04;16.90;93.00
10986;DHT22;5546;48.714;8.738;2022-08-21T01:18:33;16.80;92.50
10986;DHT22;5546;48.714;8.738;2022-08-21T01:21:13;16.80;92.70
10986;DHT22;5546;48.714;8.738;2022-08-21T01:23:45;16.90;92.70
10986;DHT22;5546;48.714;8.738;2022-08-21T01:26:13;16.80;93.30
10986;DHT22;5546;48.714;8.738;2022-08-21T01:28:50;16.60;93.60
10986;DHT22;5546;48.714;8.738;2022-08-21T01:31:19;16.70;93.10
10986;DHT22;5546;48.714;8.738;2022-08-21T01:33:47;16.70;93.30
10986;DHT22;5546;48.714;8.738;2022-08-21T01:36:13;17.00;92.80
10986;DHT22;5546;48.714;8.738;2022-08-21T01:38:38;17.00;92.80
10986;DHT22;5546;48.714;8.738;2022-08-21T01:43:30;16.50;93.30
10986;DHT22;5546;48.714;8.738;2022-08-21T01:45:55;16.30;93.50
10986;DHT22;5546;48.714;8.738;2022-08-21T01:48:21;16.30;93.70
10986;DHT22;5546;48.714;8.738;2022-08-21T01:50:47;16.50;93.40
10986;DHT22;5546;48.714;8.738;2022-08-21T01:53:12;16.70;93.30
10986;DHT22;5546;48.714;8.738;2022-08-21T01:55:41;16.80;92.90
10986;DHT22;5546;48.714;8.738;2022-08-21T01:58:07;16.70;93.30
10986;DHT22;5546;48.714;8.738;2022-08-21T02:00:33;16.60;93.20
10986;DHT22;5546;48.714;8.738;2022-08-21T02:02:58;16.60;93.40
10986;DHT22;5546;48.714;8.738;2022-08-21T02:05:24;16.60;93.30
10986;DHT22;5546;48.714;8.738;2022-08-21T02:07:52;16.40;93.20
10986;DHT22;5546;48.714;8.738;2022-08-21T02:10:22;16.50;93.10
10986;DHT22;5546;48.714;8.738;2022-08-21T02:12:47;16.50;93.30
10986;DHT22;5546;48.714;8.738;2022-08-21T02:15:13;16.50;93.20
10986;DHT22;5546;48.714;8.738;2022-08-21T02:17:47;16.60;93.10
10986;DHT22;5546;48.714;8.738;2022-08-21T02:20:18;16.60;92.80
10986;DHT22;5546;48.714;8.738;2022-08-21T02:22:44;16.40;92.90
10986;DHT22;5546;48.714;8.738;2022-08-21T02:25:12;16.50;92.80
10986;DHT22;5546;48.714;8.738;2022-08-21T02:27:42;16.50;93.10
10986;DHT22;5546;48.714;8.738;2022-08-21T02:30:14;16.90;92.80
10986;DHT22;5546;48.714;8.738;2022-08-21T02:32:40;16.30;93.20
10986;DHT22;5546;48.714;8.738;2022-08-21T02:35:06;16.10;93.40
10986;DHT22;5546;48.714;8.738;2022-08-21T02:37:32;16.10;93.60
10986;DHT22;5546;48.714;8.738;2022-08-21T02:40:00;15.90;94.10
10986;DHT22;5546;48.714;8.738;2022-08-21T02:42:26;16.10;93.40
10986;DHT22;5546;48.714;8.738;2022-08-21T02:44:52;16.10;93.60
10986;DHT22;5546;48.714;8.738;2022-08-21T02:47:17;16.30;93.50
10986;DHT22;5546;48.714;8.738;2022-08-21T02:49:43;16.30;93.30
10986;DHT22;5546;48.714;8.738;2022-08-21T02:52:08;16.20;93.40
10986;DHT22;5546;48.714;8.738;2022-08-21T02:54:34;16.10;93.50
10986;DHT22;5546;48.714;8.738;2022-08-21T02:57:00;17.50;93.80
10986;DHT22;5546;48.714;8.738;2022-08-21T02:59:25;16.30;93.20
10986;DHT22;5546;48.714;8.738;2022-08-21T03:01:51;16.00;93.70
10986;DHT22;5546;48.714;8.738;2022-08-21T03:04:16;15.90;93.90
10986;DHT22;5546;48.714;8.738;2022-08-21T03:06:42;16.10;93.80
10986;DHT22;5546;48.714;8.738;2022-08-21T03:09:08;16.10;93.30
10986;DHT22;5546;48.714;8.738;2022-08-21T03:11:33;16.20;92.90
10986;DHT22;5546;48.714;8.738;2022-08-21T03:13:59;16.10;93.20
10986;DHT22;5546;48.714;8.738;2022-08-21T03:16:25;16.00;93.50
10986;DHT22;5546;48.714;8.738;2022-08-21T03:18:50;15.90;93.90
10986;DHT22;5546;48.714;8.738;2022-08-21T03:21:16;16.10;93.20
10986;DHT22;5546;48.714;8.738;2022-08-21T03:23:44;16.10;93.40
10986;DHT22;5546;48.714;8.738;2022-08-21T03:26:09;16.00;93.50
10986;DHT22;5546;48.714;8.738;2022-08-21T03:28:36;15.60;94.00
10986;DHT22;5546;48.714;8.738;2022-08-21T03:31:01;15.50;94.30
10986;DHT22;5546;48.714;8.738;2022-08-21T03:33:27;15.50;94.30
10986;DHT22;5546;48.714;8.738;2022-08-21T03:36:05;15.70;93.90
10986;DHT22;5546;48.714;8.738;2022-08-21T03:38:33;15.60;94.20
10986;DHT22;5546;48.714;8.738;2022-08-21T03:41:00;15.50;94.40
10986;DHT22;5546;48.714;8.738;2022-08-21T03:43:26;15.50;94.30
10986;DHT22;5546;48.714;8.738;2022-08-21T03:45:52;15.80;94.00
10986;DHT22;5546;48.714;8.738;2022-08-21T03:48:18;15.80;93.80
10986;DHT22;5546;48.714;8.738;2022-08-21T03:50:44;15.50;94.00
10986;DHT22;5546;48.714;8.738;2022-08-21T03:53:13;15.50;94.30
10986;DHT22;5546;48.714;8.738;2022-08-21T03:55:39;15.50;93.80
10986;DHT22;5546;48.714;8.738;2022-08-21T03:58:06;15.60;94.20
10986;DHT22;5546;48.714;8.738;2022-08-21T04:00:32;15.60;94.10
10986;DHT22;5546;48.714;8.738;2022-08-21T04:02:58;15.50;94.30
10986;DHT22;5546;48.714;8.738;2022-08-21T04:05:24;15.40;94.50
10986;DHT22;5546;48.714;8.738;2022-08-21T04:08:01;15.60;93.90
10986;DHT22;5546;48.714;8.738;2022-08-21T04:10:29;15.70;94.10
10986;DHT22;5546;48.714;8.738;2022-08-21T04:12:55;15.70;93.80
10986;DHT22;5546;48.714;8.738;2022-08-21T04:15:22;15.40;93.90
10986;DHT22;5546;48.714;8.738;2022-08-21T04:17:49;15.40;94.20
10986;DHT22;5546;48.714;8.738;2022-08-21T04:20:16;15.80;93.50
10986;DHT22;5546;48.714;8.738;2022-08-21T04:22:42;15.70;93.50
10986;DHT22;5546;48.714;8.738;2022-08-21T04:25:10;15.50;93.80
10986;DHT22;5546;48.714;8.738;2022-08-21T04:27:36;15.40;94.10
10986;DHT22;5546;48.714;8.738;2022-08-21T04:30:02;15.30;94.30
10986;DHT22;5546;48.714;8.738;2022-08-21T04:32:28;15.30;94.00
10986;DHT22;5546;48.714;8.738;2022-08-21T04:35:02;15.40;93.80
10986;DHT22;5546;48.714;8.738;2022-08-21T04:37:29;15.50;93.80
10986;DHT22;5546;48.714;8.738;2022-08-21T04:39:54;15.40;94.10
10986;DHT22;5546;48.714;8.738;2022-08-21T04:42:23;15.30;94.40
10986;DHT22;5546;48.714;8.738;2022-08-21T04:44:49;15.30;94.50
10986;DHT22;5546;48.714;8.738;2022-08-21T04:47:14;15.20;94.70
10986;DHT22;5546;48.714;8.738;2022-08-21T04:49:41;15.60;94.80
10986;DHT22;5546;48.714;8.738;2022-08-21T04:52:07;15.10;95.00
10986;DHT22;5546;48.714;8.738;2022-08-21T04:54:33;14.90;95.60
10986;DHT22;5546;48.714;8.738;2022-08-21T04:57:05;14.80;95.50
10986;DHT22;5546;48.714;8.738;2022-08-21T04:59:48;14.90;96.00
10986;DHT22;5546;48.714;8.738;2022-08-21T05:02:14;14.90;95.50
10986;DHT22;5546;48.714;8.738;2022-08-21T05:04:50;15.00;95.40
10986;DHT22;5546;48.714;8.738;2022-08-21T05:07:20;15.00;95.50
10986;DHT22;5546;48.714;8.738;2022-08-21T05:09:47;15.40;94.90
10986;DHT22;5546;48.714;8.738;2022-08-21T05:12:13;15.70;94.30
10986;DHT22;5546;48.714;8.738;2022-08-21T05:14:39;15.70;94.30
10986;DHT22;5546;48.714;8.738;2022-08-21T05:17:04;15.80;94.10
10986;DHT22;5546;48.714;8.738;2022-08-21T05:19:30;15.80;94.40
10986;DHT22;5546;48.714;8.738;2022-08-21T05:21:56;15.90;94.40
10986;DHT22;5546;48.714;8.738;2022-08-21T05:24:22;15.80;94.30
10986;DHT22;5546;48.714;8.738;2022-08-21T05:26:48;15.80;94.30
10986;DHT22;5546;48.714;8.738;2022-08-21T05:29:15;15.70;93.90
10986;DHT22;5546;48.714;8.738;2022-08-21T05:31:41;16.00;93.70
10986;DHT22;5546;48.714;8.738;2022-08-21T05:34:07;16.00;93.90
10986;DHT22;5546;48.714;8.738;2022-08-21T05:36:33;16.00;93.80
10986;DHT22;5546;48.714;8.738;2022-08-21T05:38:59;16.20;93.70
10986;DHT22;5546;48.714;8.738;2022-08-21T05:41:24;16.50;93.20
10986;DHT22;5546;48.714;8.738;2022-08-21T05:43:50;16.80;92.50
10986;DHT22;5546;48.714;8.738;2022-08-21T05:46:16;17.00;92.40
10986;DHT22;5546;48.714;8.738;2022-08-21T05:48:41;18.10;90.40
10986;DHT22;5546;48.714;8.738;2022-08-21T05:51:09;18.00;90.60
10986;DHT22;5546;48.714;8.738;2022-08-21T05:53:35;17.90;90.10
10986;DHT22;5546;48.714;8.738;2022-08-21T05:56:01;17.60;90.70
10986;DHT22;5546;48.714;8.738;2022-08-21T05:58:29;17.90;90.20
10986;DHT22;5546;48.714;8.738;2022-08-21T06:00:56;18.20;89.80
10986;DHT22;5546;48.714;8.738;2022-08-21T06:03:27;18.00;90.10
10986;DHT22;5546;48.714;8.738;2022-08-21T06:05:53;18.00;90.40
10986;DHT22;5546;48.714;8.738;2022-08-21T06:08:20;18.50;90.00
10986;DHT22;5546;48.714;8.738;2022-08-21T06:10:47;18.70;88.40
10986;DHT22;5546;48.714;8.738;2022-08-21T06:13:14;19.30;85.80
10986;DHT22;5546;48.714;8.738;2022-08-21T06:15:40;19.30;86.40
10986;DHT22;5546;48.714;8.738;2022-08-21T06:18:06;19.20;86.40
10986;DHT22;5546;48.714;8.738;2022-08-21T06:20:31;19.10;86.80
10986;DHT22;5546;48.714;8.738;2022-08-21T06:22:57;20.70;81.90
10986;DHT22;5546;48.714;8.738;2022-08-21T06:25:23;21.40;79.60
10986;DHT22;5546;48.714;8.738;2022-08-21T06:27:50;22.20;75.80
10986;DHT22;5546;48.714;8.738;2022-08-21T06:30:16;22.10;75.40
10986;DHT22;5546;48.714;8.738;2022-08-21T06:32:41;22.60;74.40
10986;DHT22;5546;48.714;8.738;2022-08-21T06:35:07;23.60;71.60
10986;DHT22;5546;48.714;8.738;2022-08-21T06:37:33;24.40;68.70
10986;DHT22;5546;48.714;8.738;2022-08-21T06:39:59;24.50;66.90
10986;DHT22;5546;48.714;8.738;2022-08-21T06:42:24;25.30;65.80
10986;DHT22;5546;48.714;8.738;2022-08-21T06:44:50;25.60;63.90
10986;DHT22;5546;48.714;8.738;2022-08-21T06:47:15;26.10;62.70
10986;DHT22;5546;48.714;8.738;2022-08-21T06:49:41;26.60;60.90
10986;DHT22;5546;48.714;8.738;2022-08-21T06:52:12;27.00;60.00
10986;DHT22;5546;48.714;8.738;2022-08-21T06:54:38;27.20;59.30
10986;DHT22;5546;48.714;8.738;2022-08-21T06:57:04;27.50;59.20
10986;DHT22;5546;48.714;8.738;2022-08-21T06:59:30;28.40;57.40
10986;DHT22;5546;48.714;8.738;2022-08-21T07:01:57;28.40;57.80
10986;DHT22;5546;48.714;8.738;2022-08-21T07:04:22;28.00;57.20
10986;DHT22;5546;48.714;8.738;2022-08-21T07:06:48;28.10;56.70
10986;DHT22;5546;48.714;8.738;2022-08-21T07:09:13;28.00;56.30
10986;DHT22;5546;48.714;8.738;2022-08-21T07:11:40;28.00;57.20
10986;DHT22;5546;48.714;8.738;2022-08-21T07:14:06;28.20;55.90
10986;DHT22;5546;48.714;8.738;2022-08-21T07:16:32;28.10;56.70
10986;DHT22;5546;48.714;8.738;2022-08-21T07:18:57;28.20;55.80
10986;DHT22;5546;48.714;8.738;2022-08-21T07:21:23;28.90;55.20
10986;DHT22;5546;48.714;8.738;2022-08-21T07:23:50;29.90;54.10
10986;DHT22;5546;48.714;8.738;2022-08-21T07:26:18;30.30;53.00
10986;DHT22;5546;48.714;8.738;2022-08-21T07:28:46;31.30;51.10
10986;DHT22;5546;48.714;8.738;2022-08-21T07:31:14;30.70;50.70
10986;DHT22;5546;48.714;8.738;2022-08-21T07:33:41;29.80;52.10
10986;DHT22;5546;48.714;8.738;2022-08-21T07:36:07;30.10;52.70
10986;DHT22;5546;48.714;8.738;2022-08-21T07:38:34;29.50;54.20
10986;DHT22;5546;48.714;8.738;2022-08-21T07:41:01;30.00;53.10
10986;DHT22;5546;48.714;8.738;2022-08-21T07:43:28;29.30;54.10
10986;DHT22;5546;48.714;8.738;2022-08-21T07:45:54;29.30;54.60
10986;DHT22;5546;48.714;8.738;2022-08-21T07:48:21;30.30;52.50
10986;DHT22;5546;48.714;8.738;2022-08-21T07:50:47;31.10;51.70
10986;DHT22;5546;48.714;8.738;2022-08-21T07:53:13;31.20;50.20
10986;DHT22;5546;48.714;8.738;2022-08-21T07:55:39;31.40;50.30
10986;DHT22;5546;48.714;8.738;2022-08-21T07:58:05;31.50;50.80
10986;DHT22;5546;48.714;8.738;2022-08-21T08:00:32;31.50;51.40
10986;DHT22;5546;48.714;8.738;2022-08-21T08:02:58;30.80;50.80
10986;DHT22;5546;48.714;8.738;2022-08-21T08:05:26;30.20;51.50
10986;DHT22;5546;48.714;8.738;2022-08-21T08:07:52;30.70;51.00
10986;DHT22;5546;48.714;8.738;2022-08-21T08:10:19;32.00;49.00
10986;DHT22;5546;48.714;8.738;2022-08-21T08:12:46;33.00;47.60
10986;DHT22;5546;48.714;8.738;2022-08-21T08:15:15;32.90;47.00
10986;DHT22;5546;48.714;8.738;2022-08-21T08:17:41;32.10;48.10
10986;DHT22;5546;48.714;8.738;2022-08-21T08:20:08;32.00;48.80
10986;DHT22;5546;48.714;8.738;2022-08-21T08:22:37;33.50;46.10
10986;DHT22;5546;48.714;8.738;2022-08-21T08:25:05;34.90;43.30
10986;DHT22;5546;48.714;8.738;2022-08-21T08:27:31;35.80;43.00
10986;DHT22;5546;48.714;8.738;2022-08-21T08:29:56;35.80;43.00
10986;DHT22;5546;48.714;8.738;2022-08-21T08:32:22;35.90;40.70
10986;DHT22;5546;48.714;8.738;2022-08-21T08:34:48;36.00;40.10
10986;DHT22;5546;48.714;8.738;2022-08-21T08:37:14;36.70;40.20
10986;DHT22;5546;48.714;8.738;2022-08-21T08:39:40;37.70;38.50
10986;DHT22;5546;48.714;8.738;2022-08-21T08:42:13;37.70;37.00
10986;DHT22;5546;48.714;8.738;2022-08-21T08:44:45;36.90;37.60
10986;DHT22;5546;48.714;8.738;2022-08-21T08:47:14;36.10;38.70
10986;DHT22;5546;48.714;8.738;2022-08-21T08:49:51;36.90;37.40
10986;DHT22;5546;48.714;8.738;2022-08-21T08:52:30;36.40;36.60
10986;DHT22;5546;48.714;8.738;2022-08-21T08:57:33;36.70;36.90
10986;DHT22;5546;48.714;8.738;2022-08-21T09:00:03;38.10;35.50
10986;DHT22;5546;48.714;8.738;2022-08-21T09:02:29;37.70;35.40
10986;DHT22;5546;48.714;8.738;2022-08-21T09:04:55;36.70;36.60
10986;DHT22;5546;48.714;8.738;2022-08-21T09:15:23;38.90;33.10
10986;DHT22;5546;48.714;8.738;2022-08-21T09:18:03;38.80;33.70
10986;DHT22;5546;48.714;8.738;2022-08-21T09:20:48;38.00;34.50
10986;DHT22;5546;48.714;8.738;2022-08-21T09:28:34;40.00;30.80
10986;DHT22;5546;48.714;8.738;2022-08-21T09:31:02;40.10;31.50
10986;DHT22;5546;48.714;8.738;2022-08-21T09:33:29;39.80;30.80
10986;DHT22;5546;48.714;8.738;2022-08-21T09:35:56;39.10;30.90
10986;DHT22;5546;48.714;8.738;2022-08-21T09:38:33;39.50;30.20
10986;DHT22;5546;48.714;8.738;2022-08-21T09:41:06;39.60;30.80
10986;DHT22;5546;48.714;8.738;2022-08-21T09:43:33;41.00;29.00
10986;DHT22;5546;48.714;8.738;2022-08-21T09:46:09;41.10;29.40
10986;DHT22;5546;48.714;8.738;2022-08-21T09:48:47;41.00;29.20
10986;DHT22;5546;48.714;8.738;2022-08-21T09:51:28;41.50;28.60
10986;DHT22;5546;48.714;8.738;2022-08-21T09:54:09;41.90;29.20
10986;DHT22;5546;48.714;8.738;2022-08-21T09:59:37;41.00;29.70
10986;DHT22;5546;48.714;8.738;2022-08-21T10:02:33;41.30;29.70
10986;DHT22;5546;48.714;8.738;2022-08-21T10:05:07;42.30;26.90
10986;DHT22;5546;48.714;8.738;2022-08-21T10:07:37;42.10;27.20
10986;DHT22;5546;48.714;8.738;2022-08-21T10:10:13;40.80;28.50
10986;DHT22;5546;48.714;8.738;2022-08-21T10:27:27;42.50;27.00
10986;DHT22;5546;48.714;8.738;2022-08-21T10:30:03;42.60;27.00
10986;DHT22;5546;48.714;8.738;2022-08-21T10:40:33;44.40;24.50
10986;DHT22;5546;48.714;8.738;2022-08-21T10:43:07;44.70;24.50
10986;DHT22;5546;48.714;8.738;2022-08-21T10:45:40;44.40;25.50
10986;DHT22;5546;48.714;8.738;2022-08-21T10:48:22;43.30;26.00
10986;DHT22;5546;48.714;8.738;2022-08-21T10:51:02;43.10;25.80
10986;DHT22;5546;48.714;8.738;2022-08-21T10:54:01;42.30;26.30
10986;DHT22;5546;48.714;8.738;2022-08-21T10:56:33;41.40;27.10
10986;DHT22;5546;48.714;8.738;2022-08-21T10:59:26;41.60;27.00
10986;DHT22;5546;48.714;8.738;2022-08-21T11:02:09;40.90;27.60
10986;DHT22;5546;48.714;8.738;2022-08-21T11:07:26;41.10;27.20
10986;DHT22;5546;48.714;8.738;2022-08-21T11:09:56;41.30;27.10
10986;DHT22;5546;48.714;8.738;2022-08-21T11:12:37;41.90;26.40
10986;DHT22;5546;48.714;8.738;2022-08-21T11:15:24;40.40;27.50
10986;DHT22;5546;48.714;8.738;2022-08-21T11:17:57;40.90;27.50
10986;DHT22;5546;48.714;8.738;2022-08-21T11:20:36;40.70;28.40
10986;DHT22;5546;48.714;8.738;2022-08-21T11:26:24;41.80;26.00
10986;DHT22;5546;48.714;8.738;2022-08-21T11:29:00;40.40;26.80
10986;DHT22;5546;48.714;8.738;2022-08-21T11:34:38;41.80;26.00
10986;DHT22;5546;48.714;8.738;2022-08-21T11:50:16;39.80;26.70
10986;DHT22;5546;48.714;8.738;2022-08-21T11:52:54;40.40;26.80
10986;DHT22;5546;48.714;8.738;2022-08-21T12:00:49;42.00;25.90
10986;DHT22;5546;48.714;8.738;2022-08-21T12:03:32;40.40;26.70
10986;DHT22;5546;48.714;8.738;2022-08-21T12:06:03;40.10;25.90
10986;DHT22;5546;48.714;8.738;2022-08-21T12:08:35;41.30;26.20
10986;DHT22;5546;48.714;8.738;2022-08-21T12:16:34;43.80;24.20
10986;DHT22;5546;48.714;8.738;2022-08-21T12:19:28;43.50;24.70
10986;DHT22;5546;48.714;8.738;2022-08-21T12:26:54;45.30;24.20
10986;DHT22;5546;48.714;8.738;2022-08-21T12:29:29;45.70;23.40
10986;DHT22;5546;48.714;8.738;2022-08-21T12:31:59;44.70;22.90
10986;DHT22;5546;48.714;8.738;2022-08-21T12:35:09;42.80;24.30
10986;DHT22;5546;48.714;8.738;2022-08-21T12:39:59;43.20;24.10
10986;DHT22;5546;48.714;8.738;2022-08-21T12:42:37;43.10;23.70
10986;DHT22;5546;48.714;8.738;2022-08-21T12:45:14;42.90;24.30
10986;DHT22;5546;48.714;8.738;2022-08-21T12:47:50;41.10;24.20
10986;DHT22;5546;48.714;8.738;2022-08-21T12:50:40;41.30;24.70
10986;DHT22;5546;48.714;8.738;2022-08-21T12:53:22;43.10;24.70
10986;DHT22;5546;48.714;8.738;2022-08-21T12:55:48;44.40;22.70
10986;DHT22;5546;48.714;8.738;2022-08-21T12:58:19;44.70;21.50
10986;DHT22;5546;48.714;8.738;2022-08-21T13:01:05;43.90;22.00
10986;DHT22;5546;48.714;8.738;2022-08-21T13:03:35;43.30;22.30
10986;DHT22;5546;48.714;8.738;2022-08-21T13:06:03;44.10;20.90
10986;DHT22;5546;48.714;8.738;2022-08-21T13:08:30;44.20;22.70
10986;DHT22;5546;48.714;8.738;2022-08-21T13:11:05;44.00;23.40
10986;DHT22;5546;48.714;8.738;2022-08-21T13:13:32;41.20;25.00
10986;DHT22;5546;48.714;8.738;2022-08-21T13:16:07;37.20;27.80
10986;DHT22;5546;48.714;8.738;2022-08-21T13:18:35;35.60;29.80
10986;DHT22;5546;48.714;8.738;2022-08-21T13:21:12;35.40;30.00
10986;DHT22;5546;48.714;8.738;2022-08-21T13:23:38;34.90;30.50
10986;DHT22;5546;48.714;8.738;2022-08-21T13:26:17;33.90;31.90
10986;DHT22;5546;48.714;8.738;2022-08-21T13:28:43;33.30;33.30
10986;DHT22;5546;48.714;8.738;2022-08-21T13:31:17;32.70;34.30
10986;DHT22;5546;48.714;8.738;2022-08-21T13:33:43;32.50;34.50
10986;DHT22;5546;48.714;8.738;2022-08-21T13:36:24;32.40;35.20
10986;DHT22;5546;48.714;8.738;2022-08-21T13:38:51;31.70;35.50
10986;DHT22;5546;48.714;8.738;2022-08-21T13:41:25;31.70;35.20
10986;DHT22;5546;48.714;8.738;2022-08-21T13:44:04;33.10;35.10
10986;DHT22;5546;48.714;8.738;2022-08-21T13:46:35;36.10;30.40
10986;DHT22;5546;48.714;8.738;2022-08-21T13:49:03;38.10;30.40
10986;DHT22;5546;48.714;8.738;2022-08-21T13:51:30;39.30;27.60
10986;DHT22;5546;48.714;8.738;2022-08-21T13:53:56;40.50;26.90
10986;DHT22;5546;48.714;8.738;2022-08-21T13:56:32;42.10;27.40
10986;DHT22;5546;48.714;8.738;2022-08-21T13:59:00;42.20;27.20
10986;DHT22;5546;48.714;8.738;2022-08-21T14:01:32;43.40;25.20
10986;DHT22;5546;48.714;8.738;2022-08-21T14:04:03;40.80;25.50
10986;DHT22;5546;48.714;8.738;2022-08-21T14:06:35;39.80;25.70
10986;DHT22;5546;48.714;8.738;2022-08-21T14:09:11;38.60;27.80
10986;DHT22;5546;48.714;8.738;2022-08-21T14:11:37;37.10;29.00
10986;DHT22;5546;48.714;8.738;2022-08-21T14:14:26;34.90;29.80
10986;DHT22;5546;48.714;8.738;2022-08-21T14:17:05;32.90;35.40
10986;DHT22;5546;48.714;8.738;2022-08-21T14:19:41;32.10;37.20
10986;DHT22;5546;48.714;8.738;2022-08-21T14:22:29;32.10;37.60
10986;DHT22;5546;48.714;8.738;2022-08-21T14:25:01;31.40;39.60
10986;DHT22;5546;48.714;8.738;2022-08-21T14:27:30;31.50;37.30
10986;DHT22;5546;48.714;8.738;2022-08-21T14:30:11;32.80;38.00
10986;DHT22;5546;48.714;8.738;2022-08-21T14:32:40;33.80;38.30
10986;DHT22;5546;48.714;8.738;2022-08-21T14:37:32;36.00;32.80
10986;DHT22;5546;48.714;8.738;2022-08-21T14:39:58;36.30;29.80
10986;DHT22;5546;48.714;8.738;2022-08-21T14:42:24;36.80;33.20
10986;DHT22;5546;48.714;8.738;2022-08-21T14:44:50;37.80;28.60
10986;DHT22;5546;48.714;8.738;2022-08-21T14:49:41;39.70;28.60
10986;DHT22;5546;48.714;8.738;2022-08-21T14:52:08;39.60;29.40
10986;DHT22;5546;48.714;8.738;2022-08-21T14:54:33;39.70;28.60
10986;DHT22;5546;48.714;8.738;2022-08-21T14:57:07;39.80;27.30
10986;DHT22;5546;48.714;8.738;2022-08-21T14:59:34;40.20;27.40
10986;DHT22;5546;48.714;8.738;2022-08-21T15:02:01;40.60;27.50
10986;DHT22;5546;48.714;8.738;2022-08-21T15:04:31;40.70;26.20
10986;DHT22;5546;48.714;8.738;2022-08-21T15:07:00;40.60;28.10
10986;DHT22;5546;48.714;8.738;2022-08-21T15:09:26;38.50;27.90
10986;DHT22;5546;48.714;8.738;2022-08-21T15:11:55;36.70;29.30
10986;DHT22;5546;48.714;8.738;2022-08-21T15:14:25;34.60;31.10
10986;DHT22;5546;48.714;8.738;2022-08-21T15:19:20;33.90;33.00
10986;DHT22;5546;48.714;8.738;2022-08-21T15:21:45;34.40;33.10
10986;DHT22;5546;48.714;8.738;2022-08-21T15:24:11;35.00;31.20
10986;DHT22;5546;48.714;8.738;2022-08-21T15:26:36;35.00;31.10
10986;DHT22;5546;48.714;8.738;2022-08-21T15:29:04;34.60;32.30
10986;DHT22;5546;48.714;8.738;2022-08-21T15:31:30;33.80;33.90
10986;DHT22;5546;48.714;8.738;2022-08-21T15:33:56;32.80;34.40
10986;DHT22;5546;48.714;8.738;2022-08-21T15:36:22;32.20;36.50
10986;DHT22;5546;48.714;8.738;2022-08-21T15:38:48;32.10;36.30
10986;DHT22;5546;48.714;8.738;2022-08-21T15:41:14;32.40;35.90
10986;DHT22;5546;48.714;8.738;2022-08-21T15:43:49;32.70;35.70
10986;DHT22;5546;48.714;8.738;2022-08-21T15:46:17;33.00;35.90
10986;DHT22;5546;48.714;8.738;2022-08-21T15:51:11;32.00;37.50
10986;DHT22;5546;48.714;8.738;2022-08-21T15:53:37;31.40;39.40
10986;DHT22;5546;48.714;8.738;2022-08-21T15:56:07;30.90;41.90
10986;DHT22;5546;48.714;8.738;2022-08-21T15:58:36;30.60;41.60
10986;DHT22;5546;48.714;8.738;2022-08-21T16:01:02;30.10;42.50
10986;DHT22;5546;48.714;8.738;2022-08-21T16:03:27;29.70;43.20
10986;DHT22;5546;48.714;8.738;2022-08-21T16:05:53;29.40;44.70
10986;DHT22;5546;48.714;8.738;2022-08-21T16:08:22;29.40;44.00
10986;DHT22;5546;48.714;8.738;2022-08-21T16:10:48;29.50;44.80
10986;DHT22;5546;48.714;8.738;2022-08-21T16:13:31;29.10;44.50
10986;DHT22;5546;48.714;8.738;2022-08-21T16:16:00;28.90;45.70
10986;DHT22;5546;48.714;8.738;2022-08-21T16:20:52;28.90;45.90
10986;DHT22;5546;48.714;8.738;2022-08-21T16:23:18;28.70;46.80
10986;DHT22;5546;48.714;8.738;2022-08-21T16:25:44;28.90;47.50
10986;DHT22;5546;48.714;8.738;2022-08-21T16:28:13;28.30;47.10
10986;DHT22;5546;48.714;8.738;2022-08-21T16:30:42;28.20;46.40
10986;DHT22;5546;48.714;8.738;2022-08-21T16:33:29;28.30;46.90
10986;DHT22;5546;48.714;8.738;2022-08-21T16:35:57;27.80;47.10
10986;DHT22;5546;48.714;8.738;2022-08-21T16:38:22;28.20;46.80
10986;DHT22;5546;48.714;8.738;2022-08-21T16:40:48;28.20;48.30
10986;DHT22;5546;48.714;8.738;2022-08-21T16:43:14;28.10;48.40
10986;DHT22;5546;48.714;8.738;2022-08-21T16:45:40;28.10;47.90
10986;DHT22;5546;48.714;8.738;2022-08-21T16:48:06;28.20;45.80
10986;DHT22;5546;48.714;8.738;2022-08-21T16:50:34;28.00;45.50
10986;DHT22;5546;48.714;8.738;2022-08-21T16:53:00;28.10;44.70
10986;DHT22;5546;48.714;8.738;2022-08-21T16:57:53;28.30;45.70
10986;DHT22;5546;48.714;8.738;2022-08-21T17:00:20;28.00;46.80
10986;DHT22;5546;48.714;8.738;2022-08-21T17:02:52;28.00;48.30
10986;DHT22;5546;48.714;8.738;2022-08-21T17:07:45;28.10;48.20
10986;DHT22;5546;48.714;8.738;2022-08-21T17:10:12;27.70;50.00
10986;DHT22;5546;48.714;8.738;2022-08-21T17:12:39;27.80;47.80
10986;DHT22;5546;48.714;8.738;2022-08-21T17:15:14;27.70;46.70
10986;DHT22;5546;48.714;8.738;2022-08-21T17:17:40;27.40;48.60
10986;DHT22;5546;48.714;8.738;2022-08-21T17:22:32;27.10;49.20
10986;DHT22;5546;48.714;8.738;2022-08-21T17:24:57;26.90;49.70
10986;DHT22;5546;48.714;8.738;2022-08-21T17:27:25;27.10;47.80
10986;DHT22;5546;48.714;8.738;2022-08-21T17:29:53;26.90;48.40
10986;DHT22;5546;48.714;8.738;2022-08-21T17:34:45;26.50;51.20
10986;DHT22;5546;48.714;8.738;2022-08-21T17:37:11;26.70;51.10
10986;DHT22;5546;48.714;8.738;2022-08-21T17:39:37;26.90;48.70
10986;DHT22;5546;48.714;8.738;2022-08-21T17:42:06;26.90;49.00
10986;DHT22;5546;48.714;8.738;2022-08-21T17:44:37;26.60;51.30